Time;durP1;ratioP1;P1;durP2;ratioP2;P2;SDS_P1;SDS_P2;PMS_P1;PMS_P2;Temp;Humidity;BMP_temperature;BMP_pressure;BME280_temperature;BME280_humidity;BME280_pressure;Samples;Min_cycle;Max_cycle;Signal;HPM_P1;HPM_P2
2024/01/29 00:00:51;;;;;;;7.45;4.13;;;;;;;;;;2088445;28;20124;-50
2024/01/29 00:01:53;;;;;;;7.40;4.38;;;;;;;;;;2078728;28;20068;-48
2024/01/29 00:02:54;;;;;;;6.82;4.30;;;;;;;;;;2076613;28;20116;-47
2024/01/29 00:03:55;;;;;;;6.40;4.43;;;;;;;;;;2088432;28;20491;-48
2024/01/29 00:04:57;;;;;;;6.93;3.63;;;;;;;;;;2088567;28;20094;-44
2024/01/29 00:05:58;;;;;;;6.30;4.00;;;;;;;;;;2088498;28;20025;-47
2024/01/29 00:06:59;;;;;;;6.90;4.63;;;;;;;;;;2088700;28;20016;-46
2024/01/29 00:08:01;;;;;;;8.20;4.40;;;;;;;;;;2088708;28;20092;-48
2024/01/29 00:09:02;;;;;;;5.72;3.80;;;;;;;;;;2088505;28;20107;-46
2024/01/29 00:10:05;;;;;;;6.47;4.03;;;;;;;;;;2088384;28;20013;-46
2024/01/29 00:11:07;;;;;;;6.72;4.25;;;;;;;;;;2079156;28;20037;-47
2024/01/29 00:12:08;;;;;;;5.53;3.67;;;;;;;;;;2079904;28;20049;-46
2024/01/29 00:13:09;;;;;;;6.72;3.67;;;;;;;;;;2088360;28;20071;-46
2024/01/29 00:14:10;;;;;;;7.85;4.22;;;;;;;;;;2088653;28;20031;-45
2024/01/29 00:15:12;;;;;;;6.03;3.72;;;;;;;;;;2085886;28;20108;-46
2024/01/29 00:16:13;;;;;;;8.75;3.90;;;;;;;;;;2087929;28;20480;-46
2024/01/29 00:17:14;;;;;;;7.28;4.32;;;;;;;;;;2088405;28;20067;-46
2024/01/29 00:18:16;;;;;;;6.97;4.38;;;;;;;;;;2088286;28;20029;-46
2024/01/29 00:19:17;;;;;;;6.13;4.03;;;;;;;;;;2079855;28;20732;-46
2024/01/29 00:20:18;;;;;;;6.70;3.58;;;;;;;;;;2079786;28;20622;-45
2024/01/29 00:21:20;;;;;;;6.15;4.20;;;;;;;;;;2087506;28;20063;-45
2024/01/29 00:22:21;;;;;;;6.25;4.25;;;;;;;;;;2088385;28;20029;-45
2024/01/29 00:23:22;;;;;;;5.25;3.95;;;;;;;;;;2088489;28;20032;-45
2024/01/29 00:24:23;;;;;;;6.60;3.75;;;;;;;;;;2088288;28;20512;-45
2024/01/29 00:25:24;;;;;;;5.50;3.70;;;;;;;;;;2088523;28;20545;-45
2024/01/29 00:26:26;;;;;;;6.00;3.72;;;;;;;;;;2088592;28;20028;-45
2024/01/29 00:27:27;;;;;;;5.63;3.80;;;;;;;;;;2076334;28;20034;-46
2024/01/29 00:28:28;;;;;;;7.88;4.40;;;;;;;;;;2079072;28;20041;-44
2024/01/29 00:29:30;;;;;;;5.78;3.83;;;;;;;;;;2085333;28;20051;-44
2024/01/29 00:30:31;;;;;;;7.22;4.57;;;;;;;;;;2081192;28;20145;-45
2024/01/29 00:31:33;;;;;;;5.22;3.85;;;;;;;;;;2081222;28;20154;-46
2024/01/29 00:32:34;;;;;;;5.35;3.88;;;;;;;;;;2090095;28;20029;-46
2024/01/29 00:33:36;;;;;;;6.15;4.28;;;;;;;;;;2090128;28;20758;-45
2024/01/29 00:34:39;;;;;;;6.15;3.70;;;;;;;;;;2091030;28;20480;-46
2024/01/29 00:35:40;;;;;;;5.38;4.03;;;;;;;;;;2089811;28;20036;-45
2024/01/29 00:36:41;;;;;;;6.35;3.72;;;;;;;;;;2084052;28;20057;-45
2024/01/29 00:37:43;;;;;;;5.68;3.90;;;;;;;;;;2080909;28;20456;-46
2024/01/29 00:38:44;;;;;;;5.90;3.70;;;;;;;;;;2072862;28;20069;-45
2024/01/29 00:39:45;;;;;;;4.88;3.75;;;;;;;;;;2081154;28;20121;-45
2024/01/29 00:40:47;;;;;;;6.47;4.18;;;;;;;;;;2089746;28;20036;-45
2024/01/29 00:41:49;;;;;;;6.45;3.53;;;;;;;;;;2080447;28;20413;-45
2024/01/29 00:42:52;;;;;;;6.70;3.78;;;;;;;;;;2076402;28;20064;-45
2024/01/29 00:43:53;;;;;;;4.97;3.85;;;;;;;;;;2080949;28;20029;-46
2024/01/29 00:44:54;;;;;;;6.97;4.00;;;;;;;;;;2078157;28;20559;-44
2024/01/29 00:45:56;;;;;;;5.97;3.72;;;;;;;;;;2075913;28;20080;-46
2024/01/29 00:46:57;;;;;;;4.93;3.67;;;;;;;;;;2089415;28;20090;-45
2024/01/29 00:47:58;;;;;;;5.97;3.90;;;;;;;;;;2089784;28;20109;-44
2024/01/29 00:49:00;;;;;;;6.28;4.47;;;;;;;;;;2089141;28;20028;-45
2024/01/29 00:50:01;;;;;;;7.45;4.00;;;;;;;;;;2089192;28;20033;-44
2024/01/29 00:51:03;;;;;;;7.07;4.07;;;;;;;;;;2089405;28;20021;-44
2024/01/29 00:52:06;;;;;;;6.57;4.15;;;;;;;;;;2080171;28;20039;-44
2024/01/29 00:53:07;;;;;;;6.82;4.28;;;;;;;;;;2080992;28;20063;-44
2024/01/29 00:54:09;;;;;;;7.25;3.83;;;;;;;;;;2088571;28;20477;-44
2024/01/29 00:55:10;;;;;;;5.82;4.10;;;;;;;;;;2089359;28;20032;-44
2024/01/29 00:56:11;;;;;;;5.55;3.88;;;;;;;;;;2089557;28;20036;-45
2024/01/29 00:57:15;;;;;;;6.38;3.65;;;;;;;;;;2089436;28;20017;-44
2024/01/29 00:58:17;;;;;;;6.75;4.22;;;;;;;;;;2083783;28;20017;-44
2024/01/29 00:59:18;;;;;;;5.88;4.00;;;;;;;;;;2081453;28;20029;-44
2024/01/29 01:00:20;;;;;;;6.18;3.67;;;;;;;;;;2079984;28;20508;-43
2024/01/29 01:01:21;;;;;;;5.68;3.95;;;;;;;;;;2080726;28;20566;-44
2024/01/29 01:02:22;;;;;;;7.07;4.15;;;;;;;;;;2088301;28;20056;-43
2024/01/29 01:03:24;;;;;;;5.95;4.38;;;;;;;;;;2088387;28;20027;-45
2024/01/29 01:04:25;;;;;;;5.10;3.42;;;;;;;;;;2080024;28;20338;-44
2024/01/29 01:05:26;;;;;;;5.82;3.88;;;;;;;;;;2080295;28;20045;-44
2024/01/29 01:06:28;;;;;;;8.57;4.38;;;;;;;;;;2076433;28;20020;-45
2024/01/29 01:07:29;;;;;;;6.60;4.40;;;;;;;;;;2080604;28;20022;-43
2024/01/29 01:08:30;;;;;;;7.35;4.25;;;;;;;;;;2088669;28;20023;-44
2024/01/29 01:09:31;;;;;;;7.40;4.20;;;;;;;;;;2089346;28;20116;-45
2024/01/29 01:10:33;;;;;;;6.65;4.50;;;;;;;;;;2089639;28;20017;-43
2024/01/29 01:11:34;;;;;;;8.82;4.32;;;;;;;;;;2089416;28;20017;-44
2024/01/29 01:12:35;;;;;;;7.72;4.28;;;;;;;;;;2080690;28;20028;-44
2024/01/29 01:13:37;;;;;;;7.20;4.47;;;;;;;;;;2080738;28;20038;-44
2024/01/29 01:14:38;;;;;;;5.93;4.05;;;;;;;;;;2082074;28;20473;-44
2024/01/29 01:15:39;;;;;;;6.57;3.90;;;;;;;;;;2083336;28;20021;-44
2024/01/29 01:16:40;;;;;;;8.95;3.83;;;;;;;;;;2089185;28;20510;-44
2024/01/29 01:17:42;;;;;;;6.65;4.40;;;;;;;;;;2080721;28;20075;-45
2024/01/29 01:18:43;;;;;;;5.85;4.13;;;;;;;;;;2076514;28;20025;-46
2024/01/29 01:19:44;;;;;;;9.77;4.82;;;;;;;;;;2089439;28;20116;-45
2024/01/29 01:20:45;;;;;;;5.53;3.88;;;;;;;;;;2089520;28;20037;-48
2024/01/29 01:21:48;;;;;;;4.75;3.35;;;;;;;;;;2089539;28;20029;-45
2024/01/29 01:22:49;;;;;;;5.68;3.60;;;;;;;;;;2089538;28;20579;-45
2024/01/29 01:23:50;;;;;;;5.97;4.07;;;;;;;;;;2089677;28;20112;-45
2024/01/29 01:24:51;;;;;;;8.45;4.18;;;;;;;;;;2089260;28;20039;-45
2024/01/29 01:25:54;;;;;;;6.15;4.00;;;;;;;;;;2089411;28;20032;-45
2024/01/29 01:26:56;;;;;;;7.40;4.30;;;;;;;;;;2089344;28;20025;-46
2024/01/29 01:27:57;;;;;;;5.40;3.35;;;;;;;;;;2089396;28;20017;-45
2024/01/29 01:28:59;;;;;;;8.27;4.25;;;;;;;;;;2089270;28;20028;-45
2024/01/29 01:30:00;;;;;;;7.53;4.00;;;;;;;;;;2089577;28;20110;-44
2024/01/29 01:31:01;;;;;;;6.35;4.45;;;;;;;;;;2089428;28;20368;-45
2024/01/29 01:32:03;;;;;;;5.90;3.63;;;;;;;;;;2089485;28;20395;-45
2024/01/29 01:33:04;;;;;;;6.00;3.92;;;;;;;;;;2089336;28;20017;-44
2024/01/29 01:34:05;;;;;;;6.88;4.03;;;;;;;;;;2089402;28;20017;-44
2024/01/29 01:35:07;;;;;;;5.60;3.72;;;;;;;;;;2089568;28;20040;-44
2024/01/29 01:36:08;;;;;;;5.22;3.75;;;;;;;;;;2089502;28;20021;-44
2024/01/29 01:37:09;;;;;;;6.18;3.60;;;;;;;;;;2089545;28;20098;-44
2024/01/29 01:38:10;;;;;;;5.95;3.95;;;;;;;;;;2080529;28;20029;-44
2024/01/29 01:39:12;;;;;;;5.13;4.05;;;;;;;;;;2080026;28;20021;-43
2024/01/29 01:40:14;;;;;;;8.18;4.10;;;;;;;;;;2088840;28;20112;-45
2024/01/29 01:41:15;;;;;;;6.60;3.92;;;;;;;;;;2089504;28;20025;-45
2024/01/29 01:42:16;;;;;;;6.15;4.03;;;;;;;;;;2089294;28;20033;-45
2024/01/29 01:43:23;;;;;;;6.53;4.05;;;;;;;;;;2089154;28;20063;-46
2024/01/29 01:44:26;;;;;;;6.75;4.13;;;;;;;;;;2080614;28;20082;-45
2024/01/29 01:45:28;;;;;;;5.63;3.90;;;;;;;;;;2080511;28;20395;-46
2024/01/29 01:46:29;;;;;;;6.05;4.25;;;;;;;;;;2088336;28;20048;-45
2024/01/29 01:47:31;;;;;;;6.20;3.53;;;;;;;;;;2080391;28;20026;-45
2024/01/29 01:48:33;;;;;;;5.70;4.10;;;;;;;;;;2082027;28;20021;-45
2024/01/29 01:49:35;;;;;;;5.75;4.15;;;;;;;;;;2089243;28;20079;-46
2024/01/29 01:50:36;;;;;;;6.18;4.10;;;;;;;;;;2089232;28;20009;-45
2024/01/29 01:51:38;;;;;;;7.50;4.20;;;;;;;;;;2089068;28;20035;-45
2024/01/29 01:52:40;;;;;;;6.78;4.05;;;;;;;;;;2089527;28;20109;-46
2024/01/29 01:53:42;;;;;;;7.65;3.70;;;;;;;;;;2089299;28;20029;-46
2024/01/29 01:54:44;;;;;;;7.10;4.47;;;;;;;;;;2089334;28;20028;-46
2024/01/29 01:55:45;;;;;;;6.30;4.25;;;;;;;;;;2089274;28;20045;-46
2024/01/29 01:56:47;;;;;;;5.72;3.88;;;;;;;;;;2089559;28;20036;-46
2024/01/29 01:57:50;;;;;;;5.88;4.15;;;;;;;;;;2089325;28;20480;-45
2024/01/29 01:58:52;;;;;;;5.22;3.85;;;;;;;;;;2088686;28;20100;-44
2024/01/29 01:59:54;;;;;;;5.30;3.95;;;;;;;;;;2088427;28;20039;-46
2024/01/29 02:00:56;;;;;;;5.90;3.95;;;;;;;;;;2089027;28;20067;-45
2024/01/29 02:01:58;;;;;;;6.60;4.35;;;;;;;;;;2086476;28;20087;-45
2024/01/29 02:02:59;;;;;;;7.43;4.18;;;;;;;;;;2087754;28;20112;-46
2024/01/29 02:04:01;;;;;;;7.15;4.18;;;;;;;;;;2089008;28;20082;-45
2024/01/29 02:05:02;;;;;;;6.18;3.90;;;;;;;;;;2089111;28;20025;-46
2024/01/29 02:06:03;;;;;;;5.90;4.10;;;;;;;;;;2089323;28;20016;-47
2024/01/29 02:07:05;;;;;;;5.70;3.97;;;;;;;;;;2089153;28;20481;-45
2024/01/29 02:08:06;;;;;;;6.35;3.97;;;;;;;;;;2089261;28;20025;-47
2024/01/29 02:09:08;;;;;;;6.13;3.63;;;;;;;;;;2088783;28;20013;-45
2024/01/29 02:10:09;;;;;;;5.57;4.18;;;;;;;;;;2087272;28;20035;-46
2024/01/29 02:11:11;;;;;;;5.97;4.28;;;;;;;;;;2080289;28;20062;-45
2024/01/29 02:12:12;;;;;;;5.38;3.92;;;;;;;;;;2088380;28;20021;-45
2024/01/29 02:13:14;;;;;;;6.72;3.75;;;;;;;;;;2095800;28;20021;-45
2024/01/29 02:14:15;;;;;;;6.03;4.05;;;;;;;;;;2089379;28;20067;-45
2024/01/29 02:15:16;;;;;;;5.63;4.03;;;;;;;;;;2079980;28;20068;-46
2024/01/29 02:16:17;;;;;;;6.82;3.95;;;;;;;;;;2080321;28;20100;-45
2024/01/29 02:17:19;;;;;;;6.00;3.97;;;;;;;;;;2080223;28;20045;-45
2024/01/29 02:18:20;;;;;;;7.47;4.53;;;;;;;;;;2086079;28;20044;-44
2024/01/29 02:19:21;;;;;;;5.38;3.80;;;;;;;;;;2080087;28;20033;-45
2024/01/29 02:20:23;;;;;;;6.10;3.53;;;;;;;;;;2080371;28;20038;-45
2024/01/29 02:21:24;;;;;;;7.25;4.65;;;;;;;;;;2082295;28;20147;-45
2024/01/29 02:22:25;;;;;;;6.13;4.40;;;;;;;;;;2080119;28;20091;-45
2024/01/29 02:23:26;;;;;;;7.53;3.92;;;;;;;;;;2080202;28;20049;-45
2024/01/29 02:24:28;;;;;;;6.70;4.05;;;;;;;;;;2089039;28;20046;-46
2024/01/29 02:25:29;;;;;;;4.70;3.63;;;;;;;;;;2080841;28;20512;-45
2024/01/29 02:26:30;;;;;;;5.80;3.75;;;;;;;;;;2072068;28;20030;-45
2024/01/29 02:27:32;;;;;;;6.05;3.70;;;;;;;;;;2085591;28;20094;-45
2024/01/29 02:28:33;;;;;;;7.32;4.05;;;;;;;;;;2089071;28;20357;-45
2024/01/29 02:29:34;;;;;;;5.45;4.00;;;;;;;;;;2079926;28;20076;-45
2024/01/29 02:30:35;;;;;;;5.85;3.92;;;;;;;;;;2080756;28;20009;-46
2024/01/29 02:31:37;;;;;;;5.35;3.75;;;;;;;;;;2080145;28;20418;-45
2024/01/29 02:32:38;;;;;;;5.45;4.00;;;;;;;;;;2078802;28;20022;-46
2024/01/29 02:33:39;;;;;;;6.15;3.83;;;;;;;;;;2086698;28;20782;-45
2024/01/29 02:34:40;;;;;;;7.28;3.65;;;;;;;;;;2089030;28;20029;-44
2024/01/29 02:35:42;;;;;;;8.32;3.97;;;;;;;;;;2089036;28;20021;-46
2024/01/29 02:36:44;;;;;;;4.13;3.35;;;;;;;;;;2089130;28;20025;-45
2024/01/29 02:37:45;;;;;;;5.13;3.55;;;;;;;;;;2080064;28;20392;-45
2024/01/29 02:38:46;;;;;;;5.80;3.53;;;;;;;;;;2080023;28;20223;-45
2024/01/29 02:39:50;;;;;;;5.75;3.95;;;;;;;;;;2088933;28;20014;-45
2024/01/29 02:40:51;;;;;;;7.03;4.03;;;;;;;;;;2081869;28;20041;-45
2024/01/29 02:41:52;;;;;;;5.90;3.42;;;;;;;;;;2079013;28;20048;-45
2024/01/29 02:42:54;;;;;;;6.55;3.85;;;;;;;;;;2084238;28;20032;-45
2024/01/29 02:43:55;;;;;;;6.72;4.20;;;;;;;;;;2088919;28;20009;-44
2024/01/29 02:44:56;;;;;;;7.70;4.13;;;;;;;;;;2088569;28;20511;-44
2024/01/29 02:45:57;;;;;;;5.80;4.20;;;;;;;;;;2080007;28;20060;-44
2024/01/29 02:46:59;;;;;;;9.40;3.70;;;;;;;;;;2080356;28;20062;-45
2024/01/29 02:48:00;;;;;;;5.55;3.78;;;;;;;;;;2088272;28;20583;-44
2024/01/29 02:49:01;;;;;;;7.25;4.30;;;;;;;;;;2076606;28;20030;-45
2024/01/29 02:50:03;;;;;;;6.15;3.85;;;;;;;;;;2072684;28;20010;-44
2024/01/29 02:51:04;;;;;;;6.85;4.57;;;;;;;;;;2080394;28;20025;-45
2024/01/29 02:52:06;;;;;;;8.10;4.30;;;;;;;;;;2088197;28;20084;-45
2024/01/29 02:53:07;;;;;;;5.82;4.10;;;;;;;;;;2088966;28;20394;-45
2024/01/29 02:54:08;;;;;;;7.50;4.25;;;;;;;;;;2089078;28;20143;-46
2024/01/29 02:55:09;;;;;;;5.80;3.80;;;;;;;;;;2088822;28;20032;-46
2024/01/29 02:56:11;;;;;;;5.25;3.65;;;;;;;;;;2088967;28;20779;-45
2024/01/29 02:57:12;;;;;;;5.63;4.15;;;;;;;;;;2088848;28;20035;-45
2024/01/29 02:58:13;;;;;;;5.68;3.65;;;;;;;;;;2088825;28;20598;-45
2024/01/29 02:59:14;;;;;;;7.45;3.90;;;;;;;;;;2088485;28;20579;-45
2024/01/29 03:00:16;;;;;;;6.25;4.40;;;;;;;;;;2088925;28;20107;-45
2024/01/29 03:01:20;;;;;;;5.25;3.85;;;;;;;;;;2088880;28;20040;-45
2024/01/29 03:02:21;;;;;;;8.48;4.30;;;;;;;;;;2089059;28;20056;-45
2024/01/29 03:03:22;;;;;;;5.85;4.22;;;;;;;;;;2088812;28;20043;-45
2024/01/29 03:04:24;;;;;;;6.85;4.25;;;;;;;;;;2088745;28;20456;-45
2024/01/29 03:05:25;;;;;;;4.45;3.50;;;;;;;;;;2088923;28;20677;-46
2024/01/29 03:06:26;;;;;;;6.88;4.10;;;;;;;;;;2088761;28;20361;-45
2024/01/29 03:07:28;;;;;;;5.72;3.78;;;;;;;;;;2088796;28;20054;-45
2024/01/29 03:08:29;;;;;;;6.43;4.05;;;;;;;;;;2088122;28;20021;-45
2024/01/29 03:09:30;;;;;;;4.80;3.65;;;;;;;;;;2088784;28;20082;-45
2024/01/29 03:10:31;;;;;;;5.00;3.95;;;;;;;;;;2088679;28;20024;-45
2024/01/29 03:11:33;;;;;;;5.63;3.83;;;;;;;;;;2088782;28;20059;-45
2024/01/29 03:12:34;;;;;;;4.63;3.78;;;;;;;;;;2088783;28;20021;-45
2024/01/29 03:13:35;;;;;;;6.15;3.75;;;;;;;;;;2088902;28;20084;-45
2024/01/29 03:14:37;;;;;;;6.05;3.65;;;;;;;;;;2079729;28;20025;-46
2024/01/29 03:15:39;;;;;;;10.55;4.03;;;;;;;;;;2083187;28;20017;-45
2024/01/29 03:16:40;;;;;;;5.15;4.07;;;;;;;;;;2088513;28;20029;-45
2024/01/29 03:17:41;;;;;;;5.68;3.70;;;;;;;;;;2079902;28;20033;-46
2024/01/29 03:18:43;;;;;;;5.20;4.05;;;;;;;;;;2085646;28;20112;-45
2024/01/29 03:19:44;;;;;;;6.07;4.07;;;;;;;;;;2088549;28;20542;-45
2024/01/29 03:20:45;;;;;;;6.20;4.05;;;;;;;;;;2088575;28;20032;-45
2024/01/29 03:21:47;;;;;;;6.10;3.70;;;;;;;;;;2088783;28;20021;-44
2024/01/29 03:22:48;;;;;;;8.75;3.55;;;;;;;;;;2088668;28;20079;-48
2024/01/29 03:23:49;;;;;;;5.63;3.65;;;;;;;;;;2074768;28;20041;-48
2024/01/29 03:24:50;;;;;;;4.55;3.97;;;;;;;;;;2078917;28;20109;-49
2024/01/29 03:25:52;;;;;;;4.30;3.45;;;;;;;;;;2088472;28;20025;-47
2024/01/29 03:26:53;;;;;;;5.38;3.70;;;;;;;;;;2079783;28;20018;-46
2024/01/29 03:27:54;;;;;;;5.80;3.80;;;;;;;;;;2079683;28;20350;-49
2024/01/29 03:28:55;;;;;;;4.88;3.42;;;;;;;;;;2088819;28;20163;-48
2024/01/29 03:29:57;;;;;;;4.88;3.47;;;;;;;;;;2088041;28;20059;-47
2024/01/29 03:30:58;;;;;;;7.03;3.65;;;;;;;;;;2088276;28;20028;-48
2024/01/29 03:31:59;;;;;;;4.32;3.28;;;;;;;;;;2088526;28;20537;-47
2024/01/29 03:33:01;;;;;;;5.57;3.75;;;;;;;;;;2088551;28;20614;-46
2024/01/29 03:34:02;;;;;;;5.25;3.30;;;;;;;;;;2088609;28;20048;-48
2024/01/29 03:35:04;;;;;;;6.35;3.90;;;;;;;;;;2088328;28;20025;-45
2024/01/29 03:36:06;;;;;;;6.13;3.90;;;;;;;;;;2088178;28;20341;-46
2024/01/29 03:37:07;;;;;;;6.15;3.75;;;;;;;;;;2079858;28;20017;-47
2024/01/29 03:38:08;;;;;;;6.95;4.03;;;;;;;;;;2079010;28;20100;-47
2024/01/29 03:39:10;;;;;;;5.93;3.92;;;;;;;;;;2082339;28;20021;-48
2024/01/29 03:40:11;;;;;;;6.75;3.78;;;;;;;;;;2079338;28;20014;-54
2024/01/29 03:41:12;;;;;;;4.43;3.42;;;;;;;;;;2079613;28;20029;-47
2024/01/29 03:42:14;;;;;;;4.90;3.47;;;;;;;;;;2088724;28;21264;-44
2024/01/29 03:43:15;;;;;;;4.15;3.47;;;;;;;;;;2081016;28;20017;-47
2024/01/29 03:44:17;;;;;;;4.65;3.42;;;;;;;;;;2079897;28;20024;-48
2024/01/29 03:45:18;;;;;;;5.18;3.72;;;;;;;;;;2085824;28;20515;-48
2024/01/29 03:46:19;;;;;;;4.85;3.35;;;;;;;;;;2088293;28;20017;-48
2024/01/29 03:47:22;;;;;;;5.30;3.50;;;;;;;;;;2088613;28;20021;-49
2024/01/29 03:48:23;;;;;;;5.40;3.40;;;;;;;;;;2088497;28;20334;-47
2024/01/29 03:49:24;;;;;;;5.40;3.50;;;;;;;;;;2088135;28;20028;-45
2024/01/29 03:50:28;;;;;;;5.45;3.83;;;;;;;;;;2088421;28;20025;-48
2024/01/29 03:51:29;;;;;;;4.65;3.55;;;;;;;;;;2079414;28;20033;-48
2024/01/29 03:52:31;;;;;;;8.20;3.95;;;;;;;;;;2079459;28;20064;-47
2024/01/29 03:53:32;;;;;;;6.25;3.38;;;;;;;;;;2088722;28;20072;-47
2024/01/29 03:54:33;;;;;;;5.05;3.83;;;;;;;;;;2088398;28;20024;-47
2024/01/29 03:55:34;;;;;;;4.75;3.65;;;;;;;;;;2087676;28;20385;-47
2024/01/29 03:56:36;;;;;;;5.43;3.55;;;;;;;;;;2088276;28;20345;-47
2024/01/29 03:57:38;;;;;;;8.98;4.18;;;;;;;;;;2088142;28;20366;-47
2024/01/29 03:58:39;;;;;;;5.55;3.83;;;;;;;;;;2088676;28;20021;-47
2024/01/29 03:59:40;;;;;;;5.70;3.38;;;;;;;;;;2088427;28;20051;-48
2024/01/29 04:00:42;;;;;;;5.18;3.70;;;;;;;;;;2079821;28;20040;-48
2024/01/29 04:01:43;;;;;;;5.78;3.83;;;;;;;;;;2076041;28;20028;-45
2024/01/29 04:02:46;;;;;;;5.25;3.88;;;;;;;;;;2084400;28;20103;-45
2024/01/29 04:03:47;;;;;;;4.63;3.50;;;;;;;;;;2089858;28;20029;-45
2024/01/29 04:04:48;;;;;;;5.13;3.80;;;;;;;;;;2080269;28;20037;-45
2024/01/29 04:05:49;;;;;;;6.43;4.07;;;;;;;;;;2079792;28;20478;-45
2024/01/29 04:06:51;;;;;;;7.78;3.67;;;;;;;;;;2090156;28;20021;-45
2024/01/29 04:07:52;;;;;;;5.05;3.53;;;;;;;;;;2089795;28;20444;-49
2024/01/29 04:08:54;;;;;;;5.32;3.60;;;;;;;;;;2090015;28;20017;-45
2024/01/29 04:09:55;;;;;;;6.25;3.75;;;;;;;;;;2089876;28;20033;-44
2024/01/29 04:10:56;;;;;;;5.32;3.67;;;;;;;;;;2089325;28;20021;-44
2024/01/29 04:11:58;;;;;;;4.72;3.33;;;;;;;;;;2090037;28;20404;-43
2024/01/29 04:12:59;;;;;;;5.15;3.90;;;;;;;;;;2086330;28;20070;-46
2024/01/29 04:14:00;;;;;;;4.82;3.58;;;;;;;;;;2087476;28;20028;-43
2024/01/29 04:15:01;;;;;;;7.55;4.10;;;;;;;;;;2089620;28;20040;-44
2024/01/29 04:16:04;;;;;;;6.85;4.20;;;;;;;;;;2089272;28;20052;-44
2024/01/29 04:17:06;;;;;;;5.22;3.35;;;;;;;;;;2089214;28;20415;-44
2024/01/29 04:18:08;;;;;;;5.43;3.67;;;;;;;;;;2089781;28;20036;-44
2024/01/29 04:19:09;;;;;;;4.93;3.72;;;;;;;;;;2089951;28;20147;-44
2024/01/29 04:20:10;;;;;;;4.85;3.80;;;;;;;;;;2089827;28;20472;-44
2024/01/29 04:21:12;;;;;;;5.72;3.83;;;;;;;;;;2086367;28;20100;-44
2024/01/29 04:22:13;;;;;;;4.55;3.88;;;;;;;;;;2090051;28;20031;-44
2024/01/29 04:23:14;;;;;;;5.55;3.85;;;;;;;;;;2089605;28;20061;-44
2024/01/29 04:24:15;;;;;;;4.57;3.72;;;;;;;;;;2089967;28;20035;-44
2024/01/29 04:25:17;;;;;;;5.15;3.30;;;;;;;;;;2090076;28;20033;-44
2024/01/29 04:26:18;;;;;;;6.05;3.78;;;;;;;;;;2089851;28;20053;-43
2024/01/29 04:27:19;;;;;;;5.95;3.70;;;;;;;;;;2081009;28;20441;-43
2024/01/29 04:28:20;;;;;;;5.45;3.60;;;;;;;;;;2081033;28;20100;-43
2024/01/29 04:29:22;;;;;;;4.88;3.50;;;;;;;;;;2089662;28;20025;-46
2024/01/29 04:30:23;;;;;;;5.63;3.75;;;;;;;;;;2089636;28;20391;-45
2024/01/29 04:31:24;;;;;;;3.92;3.15;;;;;;;;;;2089651;28;20024;-45
2024/01/29 04:32:26;;;;;;;5.10;3.45;;;;;;;;;;2082838;28;20489;-45
2024/01/29 04:33:27;;;;;;;5.88;3.70;;;;;;;;;;2082254;28;20044;-46
2024/01/29 04:34:28;;;;;;;6.43;3.80;;;;;;;;;;2080720;28;20535;-46
2024/01/29 04:35:30;;;;;;;4.80;3.65;;;;;;;;;;2087358;28;20029;-45
2024/01/29 04:36:32;;;;;;;5.18;3.63;;;;;;;;;;2088851;28;20037;-44
2024/01/29 04:37:34;;;;;;;6.55;3.53;;;;;;;;;;2089704;28;20021;-44
2024/01/29 04:38:35;;;;;;;6.95;3.67;;;;;;;;;;2089387;28;20013;-44
2024/01/29 04:39:38;;;;;;;4.75;3.60;;;;;;;;;;2089272;28;20033;-46
2024/01/29 04:40:41;;;;;;;5.63;3.70;;;;;;;;;;2089492;28;20025;-45
2024/01/29 04:41:42;;;;;;;5.75;3.83;;;;;;;;;;2089854;28;20029;-46
2024/01/29 04:42:44;;;;;;;5.07;3.58;;;;;;;;;;2089799;28;20488;-46
2024/01/29 04:43:45;;;;;;;4.72;3.35;;;;;;;;;;2090014;28;20013;-46
2024/01/29 04:44:46;;;;;;;5.10;3.80;;;;;;;;;;2089819;28;20555;-46
2024/01/29 04:45:48;;;;;;;5.90;3.95;;;;;;;;;;2089616;28;20033;-45
2024/01/29 04:46:49;;;;;;;5.18;3.67;;;;;;;;;;2089960;28;20052;-45
2024/01/29 04:47:51;;;;;;;8.07;4.50;;;;;;;;;;2089533;28;20021;-46
2024/01/29 04:48:52;;;;;;;5.65;3.92;;;;;;;;;;2089595;28;20385;-46
2024/01/29 04:49:53;;;;;;;6.72;4.15;;;;;;;;;;2080996;28;20029;-45
2024/01/29 04:50:54;;;;;;;5.20;3.75;;;;;;;;;;2089173;28;20036;-46
2024/01/29 04:51:56;;;;;;;4.38;3.45;;;;;;;;;;2089729;28;20495;-45
2024/01/29 04:52:57;;;;;;;8.05;4.20;;;;;;;;;;2090070;28;20032;-45
2024/01/29 04:53:58;;;;;;;5.72;4.00;;;;;;;;;;2077795;28;20117;-45
2024/01/29 04:55:00;;;;;;;6.38;3.85;;;;;;;;;;2076687;28;20029;-45
2024/01/29 04:56:02;;;;;;;6.50;3.97;;;;;;;;;;2080692;28;20485;-45
2024/01/29 04:57:04;;;;;;;4.82;3.67;;;;;;;;;;2081097;28;20493;-45
2024/01/29 04:58:05;;;;;;;6.55;3.70;;;;;;;;;;2089975;28;20024;-46
2024/01/29 04:59:06;;;;;;;5.47;3.88;;;;;;;;;;2082542;28;20048;-46
2024/01/29 05:00:11;;;;;;;4.78;3.58;;;;;;;;;;2082058;28;20131;-47
2024/01/29 05:01:12;;;;;;;5.78;3.92;;;;;;;;;;2087035;28;20021;-48
2024/01/29 05:02:16;;;;;;;7.07;4.30;;;;;;;;;;2089554;28;20021;-47
2024/01/29 05:03:18;;;;;;;5.25;4.00;;;;;;;;;;2089571;28;20458;-47
2024/01/29 05:04:20;;;;;;;5.65;3.95;;;;;;;;;;2089989;28;20039;-43
2024/01/29 05:05:21;;;;;;;9.13;4.30;;;;;;;;;;2089587;28;20029;-46
2024/01/29 05:06:23;;;;;;;4.97;3.75;;;;;;;;;;2083655;28;20026;-46
2024/01/29 05:07:24;;;;;;;5.40;3.90;;;;;;;;;;2089044;28;20434;-49
2024/01/29 05:08:25;;;;;;;5.57;4.43;;;;;;;;;;2089789;28;20017;-48
2024/01/29 05:09:27;;;;;;;5.82;4.50;;;;;;;;;;2089563;28;20423;-47
2024/01/29 05:10:29;;;;;;;6.65;4.40;;;;;;;;;;2089764;28;20021;-47
2024/01/29 05:11:30;;;;;;;5.93;4.45;;;;;;;;;;2089620;28;20094;-47
2024/01/29 05:12:31;;;;;;;5.90;4.20;;;;;;;;;;2089886;28;20025;-48
2024/01/29 05:13:32;;;;;;;6.50;4.18;;;;;;;;;;2089743;28;20499;-49
2024/01/29 05:14:33;;;;;;;4.57;3.75;;;;;;;;;;2089236;28;20028;-47
2024/01/29 05:15:35;;;;;;;7.25;4.38;;;;;;;;;;2089010;28;20025;-47
2024/01/29 05:16:37;;;;;;;5.63;4.07;;;;;;;;;;2084385;28;20443;-48
2024/01/29 05:17:38;;;;;;;5.15;3.72;;;;;;;;;;2088624;28;20029;-49
2024/01/29 05:18:39;;;;;;;5.90;4.07;;;;;;;;;;2089719;28;20473;-49
2024/01/29 05:19:45;;;;;;;5.40;3.83;;;;;;;;;;2080673;28;20037;-47
2024/01/29 05:20:46;;;;;;;4.88;4.13;;;;;;;;;;2075975;28;20109;-48
2024/01/29 05:21:48;;;;;;;5.70;4.10;;;;;;;;;;2089826;28;20020;-48
2024/01/29 05:22:50;;;;;;;5.07;3.97;;;;;;;;;;2087823;28;20108;-48
2024/01/29 05:23:51;;;;;;;5.88;4.10;;;;;;;;;;2090113;28;20068;-45
2024/01/29 05:24:52;;;;;;;5.97;4.05;;;;;;;;;;2089691;28;20040;-44
2024/01/29 05:25:54;;;;;;;5.32;4.30;;;;;;;;;;2092267;28;20526;-44
2024/01/29 05:26:56;;;;;;;7.82;4.70;;;;;;;;;;2082424;28;20499;-45
2024/01/29 05:27:57;;;;;;;6.35;4.25;;;;;;;;;;2086103;28;20053;-44
2024/01/29 05:28:58;;;;;;;6.28;3.97;;;;;;;;;;2092182;28;20360;-45
2024/01/29 05:30:00;;;;;;;7.47;4.40;;;;;;;;;;2084527;28;20518;-44
2024/01/29 05:31:02;;;;;;;6.68;4.10;;;;;;;;;;2080268;28;20456;-45
2024/01/29 05:32:03;;;;;;;6.72;4.30;;;;;;;;;;2080596;28;20055;-44
2024/01/29 05:33:04;;;;;;;7.40;4.55;;;;;;;;;;2083195;28;20109;-44
2024/01/29 05:34:06;;;;;;;6.03;4.28;;;;;;;;;;2089479;28;20464;-44
2024/01/29 05:35:08;;;;;;;5.50;4.35;;;;;;;;;;2089191;28;20025;-44
2024/01/29 05:36:09;;;;;;;7.72;4.65;;;;;;;;;;2090056;28;20104;-44
2024/01/29 05:37:10;;;;;;;5.43;4.35;;;;;;;;;;2080706;28;20033;-45
2024/01/29 05:38:11;;;;;;;5.95;4.55;;;;;;;;;;2082073;28;20121;-44
2024/01/29 05:39:13;;;;;;;8.00;5.20;;;;;;;;;;2090765;28;20515;-44
2024/01/29 05:40:14;;;;;;;6.90;4.60;;;;;;;;;;2089587;28;20384;-44
2024/01/29 05:41:17;;;;;;;6.95;5.10;;;;;;;;;;2085120;28;20478;-44
2024/01/29 05:42:19;;;;;;;7.20;4.53;;;;;;;;;;2089213;28;20053;-44
2024/01/29 05:43:20;;;;;;;6.88;5.03;;;;;;;;;;2088290;28;20147;-43
2024/01/29 05:44:23;;;;;;;6.88;4.65;;;;;;;;;;2089574;28;20029;-47
2024/01/29 05:45:24;;;;;;;6.15;4.80;;;;;;;;;;2088904;28;20103;-50
2024/01/29 05:46:26;;;;;;;6.88;4.47;;;;;;;;;;2089271;28;20113;-48
2024/01/29 05:47:27;;;;;;;6.45;4.75;;;;;;;;;;2088010;28;20032;-51
2024/01/29 05:48:28;;;;;;;7.57;4.80;;;;;;;;;;2088918;28;20048;-50
2024/01/29 05:49:29;;;;;;;6.25;4.05;;;;;;;;;;2089409;28;20387;-49
2024/01/29 05:50:31;;;;;;;6.82;4.00;;;;;;;;;;2089206;28;20028;-49
2024/01/29 05:51:32;;;;;;;6.90;4.35;;;;;;;;;;2089119;28;20132;-47
2024/01/29 05:52:33;;;;;;;8.50;4.50;;;;;;;;;;2089270;28;20025;-46
2024/01/29 05:53:35;;;;;;;8.23;4.50;;;;;;;;;;2089099;28;20083;-46
2024/01/29 05:54:36;;;;;;;5.95;4.35;;;;;;;;;;2089416;28;20017;-47
2024/01/29 05:55:37;;;;;;;5.63;4.47;;;;;;;;;;2083707;28;20487;-47
2024/01/29 05:56:42;;;;;;;6.45;4.68;;;;;;;;;;2081153;28;20067;-46
2024/01/29 05:57:43;;;;;;;6.65;4.53;;;;;;;;;;2088596;28;20864;-45
2024/01/29 05:58:46;;;;;;;7.20;4.70;;;;;;;;;;2088873;28;20411;-46
2024/01/29 05:59:48;;;;;;;7.45;4.32;;;;;;;;;;2089367;28;20021;-47
2024/01/29 06:00:49;;;;;;;6.68;4.03;;;;;;;;;;2089356;28;20017;-48
2024/01/29 06:01:50;;;;;;;7.88;5.22;;;;;;;;;;2089312;28;20025;-48
2024/01/29 06:02:51;;;;;;;6.65;4.28;;;;;;;;;;2089305;28;20430;-47
2024/01/29 06:03:53;;;;;;;9.07;4.90;;;;;;;;;;2089482;28;20154;-48
2024/01/29 06:04:55;;;;;;;6.30;4.70;;;;;;;;;;2089021;28;20033;-46
2024/01/29 06:05:56;;;;;;;5.97;4.30;;;;;;;;;;2089203;28;20405;-47
2024/01/29 06:06:57;;;;;;;5.57;3.97;;;;;;;;;;2080705;28;20049;-47
2024/01/29 06:07:58;;;;;;;7.35;4.80;;;;;;;;;;2072883;28;20479;-46
2024/01/29 06:09:00;;;;;;;8.40;5.05;;;;;;;;;;2082025;28;20053;-46